EFKK/KOK METAR and TAF weather

Enter ICAO airport designator
Station Type Date Time Source
EFKK METAR 2019/02/20 23:20 UTC NOAA

EFKK 202320Z AUTO 35007KT CAVOK M11/M13 Q1018


Station Type Date Time Source
EFKK Decoded METAR 2019/02/20 23:20 UTC NOAA

Kruunupyy, Finland (EFKK) 63-43N 023-09E
Feb 20, 2019 - 06:20 PM EST / 2019.02.20 2320 UTC
Wind: from the N (350 degrees) at 8 MPH (7 KT):0
Visibility: greater than 7 mile(s):0
Temperature: 12 F (-11 C)
Windchill: 0 F (-18 C):1
Dew Point: 8 F (-13 C)
Relative Humidity: 85%
Pressure (altimeter): 30.06 in. Hg (1018 hPa)
ob: EFKK 202320Z AUTO 35007KT CAVOK M11/M13 Q1018
cycle: 23

Station Type Date Time Source
EFKK TAF 2019/02/19 00:51 UTC NOAA

TAF
AMD EFKK 192343Z 2000/2024 20008KT 9999 BKN003
BECMG 2001/2003 34015KT BKN015
TEMPO 2003/2008 34020G35KT 4000 -SHSN BKN010 FEW040CB
TEMPO 2008/2013 34020G40KT
TEMPO 2013/2017 35015G30KT


Example: see airport list